Green Forest, Arkansas
Current Conditions -  °F | °C
As of 5:53 PM on Thursday 18 Dec 2014 (Local Time) from KHRO Reporting Station
Overcast Overcast  
Wind Chill: 39°   Ceiling: 500
Heat Index: 39°   Visibility: 7mi
Dew Point: 38°   Wind: 0mph
Humidity: 96%   Direction: NA
Pressure: 30.17"   Gusts: NA
Location:  36.34°N, 93.44°W
Report Text: KHRO 182353Z AUTO 00000KT 7SM OVC005 04/03 A3017 RMK AO2 SLP224 T00390033 10044 20028 53009
Loading
Personal Weather Stations






























Interactive Weather Map New forecast layout! Learn more

10-Day Weather Forecast

Advertisements
Track Severe Weather on mobile